CDT,Max TemperatureF,Mean TemperatureF,Min TemperatureF,Max Dew PointF,MeanDew PointF,Min DewpointF,Max Humidity, Mean Humidity, Min Humidity, Max Sea Level PressureIn, Mean Sea Level PressureIn, Min Sea Level PressureIn, Max VisibilityMiles, Mean VisibilityMiles, Min VisibilityMiles, Max Wind SpeedMPH, Mean Wind SpeedMPH, Max Gust SpeedMPH,PrecipitationIn, CloudCover, Events, WindDirDegrees
2013-8-1,91,82,73,81,76,73,100,88,59,30.02,29.97,29.93,10,7,0,16,4,25,1.28,4,Fog-Rain-Thunderstorm,241
2013-8-2,93,82,73,78,75,71,100,83,50,30.03,29.99,29.93,10,8,1,7,1,,0.00,1,,10
2013-8-3,93,83,73,79,75,68,100,89,43,30.07,30.02,29.99,10,4,0,8,0,,0.00,1,Fog,301
2013-8-4,96,85,75,79,76,74,100,81,50,30.09,30.04,29.98,10,7,2,7,1,,0.00,0,Thunderstorm,305
2013-8-5,93,83,75,80,75,73,97,85,58,30.05,30.01,29.96,10,8,2,8,2,,0.08,2,Rain-Thunderstorm,271
2013-8-6,90,82,73,79,75,73,100,88,68,30.01,29.97,29.92,10,9,2,17,3,25,0.34,2,Rain-Thunderstorm,329
2013-8-7,93,84,75,81,77,73,97,84,56,29.99,29.95,29.92,10,8,3,7,1,16,0.00,1,Thunderstorm,100
2013-8-8,90,84,77,79,77,73,100,86,65,30.00,29.96,29.92,10,7,2,10,2,,0.54,2,Rain-Thunderstorm,106
2013-8-9,90,83,77,79,77,75,96,85,63,30.05,29.99,29.95,10,9,5,17,3,21,0.19,3,Rain-Thunderstorm,110
2013-8-10,91,83,75,77,75,71,97,79,52,30.10,30.06,30.02,10,10,10,13,3,18,0.00,1,Rain-Thunderstorm,134
2013-8-11,91,83,75,79,76,74,97,80,57,30.14,30.10,30.07,10,9,2,17,3,17,0.19,3,Rain-Thunderstorm,140
2013-8-12,86,80,75,81,77,73,100,91,77,30.13,30.09,30.04,10,8,0,8,1,16,0.71,4,Fog-Rain-Thunderstorm,151
2013-8-13,90,82,73,81,76,73,100,89,63,30.05,30.00,29.95,10,7,2,23,3,29,0.46,3,Rain-Thunderstorm,258
2013-8-14,82,78,73,75,73,72,100,91,74,30.00,29.96,29.93,10,10,9,7,2,,0.00,2,Rain,295
2013-8-15,88,80,72,76,73,71,100,85,61,30.00,29.96,29.92,10,9,2,9,2,,0.00,4,,359
2013-8-16,88,80,73,77,73,69,97,87,65,30.01,29.97,29.94,10,8,3,21,3,26,0.10,7,Rain-Thunderstorm,39
2013-8-17,75,73,71,73,72,72,100,94,87,30.01,29.98,29.94,10,9,2,10,4,,0.13,7,Rain,60
2013-8-18,82,76,71,77,73,71,100,95,79,30.01,29.98,29.95,10,5,1,17,5,28,3.33,7,Rain-Thunderstorm,102
2013-8-19,87,80,73,77,74,72,100,88,67,30.06,30.02,29.99,10,9,5,9,1,,0.00,2,,237
2013-8-20,87,80,73,76,74,72,100,88,67,30.09,30.04,30.01,10,8,2,13,2,,0.02,2,Rain-Thunderstorm,76
2013-8-21,89,80,73,78,75,71,100,84,61,30.14,30.09,30.06,10,10,10,7,4,,0.01,1,Thunderstorm,91
2013-8-22,90,81,72,76,73,71,97,82,55,30.10,30.04,29.99,10,10,8,12,4,16,0.05,2,Rain-Thunderstorm,85
2013-8-23,82,78,73,75,74,73,100,86,74,30.04,30.00,29.96,10,10,10,12,5,,0.00,3,,67
2013-8-24,79,76,73,75,73,71,100,93,79,30.15,30.08,30.00,10,9,2,6,3,,0.33,4,Rain,91
2013-8-25,84,78,73,76,73,72,97,90,69,30.20,30.17,30.10,10,10,2,12,5,17,0.11,5,Rain-Thunderstorm,74
2013-8-26,89,80,71,74,69,64,96,75,45,30.21,30.16,30.11,10,10,8,13,5,17,0.00,2,,73
2013-8-27,88,77,66,70,67,62,97,75,44,30.13,30.09,30.05,10,10,7,8,2,,0.00,1,,355
2013-8-28,89,76,66,72,68,66,100,83,51,30.10,30.04,30.02,10,7,1,7,1,,0.00,2,,348
2013-8-29,91,80,68,73,69,66,100,79,45,30.09,30.04,29.99,10,8,2,7,1,,0.00,0,,222
2013-8-30,91,80,69,74,71,69,100,79,48,30.05,29.99,29.93,10,8,2,6,1,,0.00,1,,299
2013-8-31,91,82,72,76,73,70,97,78,55,29.99,29.92,29.87,9,7,4,8,2,,0.00,0,Thunderstorm,227